Wetterdaten: Woche 30.03.15 - 05.04.15 (KW14)
Datum Zeit Temp. A. Feuchte A. Luftdruck Regen Wind Richtung Sonnenschein ET UV Solar Taupunkt Windchill Windben Empfang
30.03.2015 00:00 9,1 C 80 % 999,2 hPa 0,3 l/m 4,2 km/h (1 Bft) NO 0,00 h 0,000 mm 0,0 UV-I 0 W/m 5,9 C 9,0 C 7,9 km/h (2 Bft) 0,00 %
30.03.2015 01:00 9,3 C 77 % 998,9 hPa 0,0 l/m 7,9 km/h (2 Bft) SW 0,00 h 0,000 mm 0,0 UV-I 0 W/m 5,5 C 8,0 C 11,9 km/h (2 Bft) 0,00 %
30.03.2015 02:00 9,1 C 78 % 998,3 hPa 0,3 l/m 5,8 km/h (2 Bft) S-SW 0,00 h 0,000 mm 0,0 UV-I 0 W/m 5,5 C 7,9 C 10,9 km/h (2 Bft) 0,00 %
30.03.2015 03:00 9,6 C 72 % 997,2 hPa 0,0 l/m 10,7 km/h (2 Bft) N-NO 0,00 h 0,000 mm 0,0 UV-I 0 W/m 4,8 C 6,9 C 15,9 km/h (3 Bft) 0,00 %
30.03.2015 04:00 9,1 C 77 % 996,8 hPa 0,3 l/m 3,7 km/h (1 Bft) SW 0,00 h 0,000 mm 0,0 UV-I 0 W/m 5,3 C 8,6 C 6,0 km/h (2 Bft) 0,00 %
30.03.2015 05:00 8,5 C 82 % 997,0 hPa 0,6 l/m 6,1 km/h (2 Bft) W-SW 0,00 h 0,000 mm 0,0 UV-I 0 W/m 5,6 C 7,2 C 8,9 km/h (2 Bft) 0,00 %
30.03.2015 06:00 7,8 C 78 % 997,8 hPa 0,6 l/m 9,6 km/h (2 Bft) SO 0,00 h 0,000 mm 0,0 UV-I 0 W/m 4,2 C 5,4 C 13,9 km/h (3 Bft) 0,00 %
30.03.2015 07:00 5,7 C 85 % 998,9 hPa 0,9 l/m 0,6 km/h (0 Bft) NW 0,00 h 0,000 mm 0,0 UV-I 11 W/m 3,4 C 5,7 C 2,0 km/h (1 Bft) 0,00 %
30.03.2015 08:00 5,6 C 86 % 998,5 hPa 0,9 l/m 0,4 km/h (0 Bft) N 0,00 h 0,000 mm 1,0 UV-I 54 W/m 3,4 C 5,6 C 1,0 km/h (0 Bft) 0,00 %
30.03.2015 09:00 6,4 C 86 % 997,7 hPa 0,9 l/m 0,1 km/h (0 Bft) N 0,00 h 0,000 mm 1,0 UV-I 98 W/m 4,3 C 6,4 C 1,0 km/h (0 Bft) 0,00 %
30.03.2015 10:00 7,4 C 85 % 997,7 hPa 1,5 l/m 7,3 km/h (2 Bft) W 0,00 h 0,000 mm 1,0 UV-I 63 W/m 5,0 C 5,1 C 11,0 km/h (2 Bft) 0,00 %
30.03.2015 11:00 6,6 C 84 % 999,4 hPa 3,0 l/m 5,1 km/h (1 Bft) SW 0,00 h 0,000 mm 1,0 UV-I 65 W/m 4,1 C 6,1 C 6,9 km/h (2 Bft) 0,00 %
30.03.2015 12:00 5,1 C 82 % 1001,2 hPa 1,2 l/m 9,4 km/h (2 Bft) W-SW 0,00 h 0,000 mm 1,3 UV-I 116 W/m 2,2 C 1,9 C 13,8 km/h (3 Bft) 0,00 %
30.03.2015 13:00 6,3 C 74 % 1001,3 hPa 0,0 l/m 5,0 km/h (1 Bft) SW 0,00 h 0,000 mm 2,0 UV-I 202 W/m 2,0 C 5,5 C 7,9 km/h (2 Bft) 0,00 %
30.03.2015 14:00 7,8 C 69 % 1002,2 hPa 0,0 l/m 3,9 km/h (1 Bft) W 0,25 h 0,000 mm 2,7 UV-I 354 W/m 2,4 C 6,8 C 7,9 km/h (2 Bft) 0,00 %
30.03.2015 15:00 6,4 C 72 % 1003,3 hPa 0,0 l/m 7,5 km/h (2 Bft) O 0,00 h 0,000 mm 1,3 UV-I 164 W/m 1,8 C 5,0 C 13,9 km/h (3 Bft) 0,00 %
30.03.2015 16:00 6,4 C 71 % 1003,5 hPa 0,0 l/m 8,4 km/h (2 Bft) W-SW 0,00 h 0,000 mm 1,7 UV-I 166 W/m 1,5 C 4,5 C 16,9 km/h (3 Bft) 0,00 %
30.03.2015 17:00 4,9 C 78 % 1005,1 hPa 0,9 l/m 14,1 km/h (3 Bft) W-SW 0,25 h 0,000 mm 1,0 UV-I 181 W/m 1,3 C 1,4 C 21,1 km/h (4 Bft) 0,00 %
30.03.2015 18:00 5,0 C 80 % 1005,8 hPa 0,3 l/m 7,7 km/h (2 Bft) W-SW 0,00 h 0,000 mm 0,0 UV-I 35 W/m 1,8 C 3,1 C 15,9 km/h (3 Bft) 0,00 %
30.03.2015 19:00 4,4 C 76 % 1008,1 hPa 0,0 l/m 7,7 km/h (2 Bft) SO 0,00 h 0,000 mm 0,0 UV-I 0 W/m 0,6 C 2,5 C 12,0 km/h (2 Bft) 0,00 %
30.03.2015 20:00 4,0 C 77 % 1009,8 hPa 0,0 l/m 2,3 km/h (1 Bft) W-SW 0,00 h 0,000 mm 0,0 UV-I 0 W/m 0,3 C 4,0 C 5,9 km/h (2 Bft) 0,00 %
30.03.2015 21:00 4,1 C 77 % 1010,9 hPa 0,0 l/m 2,3 km/h (1 Bft) W-SW 0,00 h 0,000 mm 0,0 UV-I 0 W/m 0,3 C 4,1 C 5,0 km/h (1 Bft) 0,00 %
30.03.2015 22:00 4,4 C 73 % 1011,6 hPa 0,0 l/m 7,6 km/h (2 Bft) W-SW 0,00 h 0,000 mm 0,0 UV-I 0 W/m -0,1 C 3,0 C 11,9 km/h (2 Bft) 0,00 %
30.03.2015 23:00 4,4 C 65 % 1012,4 hPa 0,0 l/m 4,6 km/h (1 Bft) S-SW 0,00 h 0,000 mm 0,0 UV-I 0 W/m -1,5 C 2,8 C 9,0 km/h (2 Bft) 0,00 %
31.03.2015 00:00 4,3 C 66 % 1012,8 hPa 0,0 l/m 1,8 km/h (1 Bft) NO 0,00 h 0,000 mm 0,0 UV-I 0 W/m -1,5 C 4,3 C 5,0 km/h (1 Bft) 0,00 %
31.03.2015 01:00 3,8 C 74 % 1012,3 hPa 0,0 l/m 2,4 km/h (1 Bft) S-SO 0,00 h 0,000 mm 0,0 UV-I 0 W/m -0,4 C 3,8 C 6,9 km/h (2 Bft) 0,00 %
31.03.2015 02:00 3,8 C 73 % 1011,3 hPa 0,0 l/m 1,3 km/h (1 Bft) S-SW 0,00 h 0,000 mm 0,0 UV-I 0 W/m -0,6 C 3,8 C 3,0 km/h (1 Bft) 0,00 %
31.03.2015 03:00 4,2 C 68 % 1010,3 hPa 0,0 l/m 1,1 km/h (1 Bft) SW 0,00 h 0,000 mm 0,0 UV-I 0 W/m -1,1 C 4,2 C 2,0 km/h (1 Bft) 0,00 %
31.03.2015 04:00 4,6 C 72 % 1008,7 hPa 0,6 l/m 0,8 km/h (0 Bft) O-NO 0,00 h 0,000 mm 0,0 UV-I 0 W/m -0,2 C 4,6 C 3,0 km/h (1 Bft) 0,00 %
31.03.2015 05:00 3,7 C 83 % 1006,6 hPa 0,9 l/m 0,0 km/h (0 Bft) S-SO 0,00 h 0,000 mm 0,0 UV-I 0 W/m 1,0 C 3,7 C 0,0 km/h (0 Bft) 0,00 %
31.03.2015 06:00 3,4 C 87 % 1003,5 hPa 1,8 l/m 1,5 km/h (1 Bft) SO 0,00 h 0,000 mm 0,0 UV-I 0 W/m 1,4 C 3,4 C 5,0 km/h (1 Bft) 0,00 %
31.03.2015 07:00 3,2 C 89 % 1001,4 hPa 0,9 l/m 4,8 km/h (1 Bft) O-SO 0,00 h 0,000 mm 1,0 UV-I 21 W/m 1,5 C 3,0 C 7,9 km/h (2 Bft) 0,00 %
31.03.2015 08:00 3,7 C 88 % 999,7 hPa 0,0 l/m 0,0 km/h (0 Bft) N 0,00 h 0,000 mm 1,0 UV-I 37 W/m 1,9 C 3,7 C 0,0 km/h (0 Bft) 0,00 %
31.03.2015 09:00 5,1 C 87 % 997,3 hPa 0,0 l/m 0,0 km/h (0 Bft) N 0,25 h 0,000 mm 2,0 UV-I 248 W/m 3,0 C 5,1 C 0,0 km/h (0 Bft) 0,00 %
31.03.2015 10:00 9,4 C 73 % 995,5 hPa 0,0 l/m 2,8 km/h (1 Bft) N-NO 0,25 h 0,000 mm 1,3 UV-I 152 W/m 4,8 C 9,4 C 6,9 km/h (2 Bft) 0,00 %
31.03.2015 11:00 13,1 C 57 % 994,4 hPa 0,0 l/m 13,3 km/h (3 Bft) SW 0,00 h 0,000 mm 1,7 UV-I 182 W/m 4,7 C 9,7 C 18,0 km/h (3 Bft) 0,00 %
31.03.2015 12:00 15,6 C 44 % 993,6 hPa 0,0 l/m 23,6 km/h (4 Bft) W-NW 0,00 h 0,000 mm 2,3 UV-I 239 W/m 3,3 C 9,8 C 31,1 km/h (5 Bft) 0,00 %
31.03.2015 13:00 15,3 C 47 % 994,7 hPa 0,0 l/m 19,3 km/h (3 Bft) W-SW 0,00 h 0,000 mm 2,0 UV-I 248 W/m 4,0 C 10,4 C 26,0 km/h (4 Bft) 0,00 %
31.03.2015 14:00 14,0 C 54 % 995,3 hPa 0,0 l/m 17,0 km/h (3 Bft) S-SW 0,00 h 0,000 mm 2,0 UV-I 271 W/m 4,9 C 9,7 C 27,1 km/h (4 Bft) 0,00 %
31.03.2015 15:00 12,8 C 58 % 996,2 hPa 0,0 l/m 21,1 km/h (4 Bft) W-SW 0,00 h 0,000 mm 1,3 UV-I 144 W/m 4,6 C 7,0 C 31,0 km/h (5 Bft) 0,00 %
31.03.2015 16:00 11,9 C 62 % 996,6 hPa 0,0 l/m 10,7 km/h (2 Bft) W-SW 0,00 h 0,000 mm 1,0 UV-I 68 W/m 4,8 C 9,5 C 15,9 km/h (3 Bft) 0,00 %
31.03.2015 17:00 9,6 C 70 % 998,7 hPa 0,0 l/m 24,6 km/h (4 Bft) SW 0,00 h 0,000 mm 1,0 UV-I 43 W/m 4,3 C 2,2 C 33,1 km/h (5 Bft) 0,00 %
31.03.2015 18:00 8,7 C 72 % 1000,3 hPa 0,0 l/m 20,4 km/h (4 Bft) W-SW 0,25 h 0,000 mm 0,0 UV-I 69 W/m 4,0 C 2,1 C 26,0 km/h (4 Bft) 0,00 %
31.03.2015 19:00 8,2 C 64 % 1002,5 hPa 0,0 l/m 14,6 km/h (3 Bft) W-SW 0,00 h 0,000 mm 0,0 UV-I 0 W/m 1,7 C 3,4 C 20,9 km/h (4 Bft) 0,00 %
31.03.2015 20:00 7,1 C 63 % 1004,8 hPa 0,0 l/m 14,3 km/h (3 Bft) W-SW 0,00 h 0,000 mm 0,0 UV-I 0 W/m 0,6 C 2,4 C 19,0 km/h (3 Bft) 0,00 %
31.03.2015 21:00 6,9 C 58 % 1005,7 hPa 0,0 l/m 10,1 km/h (2 Bft) SO 0,00 h 0,000 mm 0,0 UV-I 0 W/m -0,7 C 4,3 C 16,9 km/h (3 Bft) 0,00 %
31.03.2015 22:00 6,6 C 58 % 1006,5 hPa 0,0 l/m 13,0 km/h (3 Bft) W-SW 0,00 h 0,000 mm 0,0 UV-I 0 W/m -1,2 C 2,2 C 19,0 km/h (3 Bft) 0,00 %
31.03.2015 23:00 6,2 C 60 % 1007,2 hPa 0,0 l/m 20,7 km/h (4 Bft) W-SW 0,00 h 0,000 mm 0,0 UV-I 0 W/m -1,1 C 1,9 C 28,0 km/h (4 Bft) 0,00 %
01.04.2015 00:00 6,0 C 63 % 1007,7 hPa 0,0 l/m 8,1 km/h (2 Bft) W-SW 0,00 h 0,000 mm 0,0 UV-I 0 W/m -0,6 C 3,4 C 13,9 km/h (3 Bft) 0,00 %
01.04.2015 01:00 5,7 C 64 % 1007,4 hPa 0,0 l/m 8,6 km/h (2 Bft) O 0,00 h 0,000 mm 0,0 UV-I 0 W/m -0,5 C 3,1 C 12,8 km/h (3 Bft) 0,00 %
01.04.2015 02:00 3,7 C 79 % 1008,1 hPa 0,3 l/m 17,9 km/h (3 Bft) W-SW 0,00 h 0,000 mm 0,0 UV-I 0 W/m 0,4 C -3,6 C 24,0 km/h (4 Bft) 0,00 %
01.04.2015 03:00 2,7 C 82 % 1009,1 hPa 0,3 l/m 15,1 km/h (3 Bft) W-SW 0,00 h 0,000 mm 0,0 UV-I 0 W/m -0,1 C -2,7 C 21,1 km/h (4 Bft) 0,00 %
01.04.2015 04:00 1,3 C 83 % 1010,4 hPa 1,8 l/m 7,9 km/h (2 Bft) N-NO 0,00 h 0,000 mm 0,0 UV-I 0 W/m -1,3 C -1,3 C 12,9 km/h (3 Bft) 0,00 %
01.04.2015 05:00 1,2 C 81 % 1010,5 hPa 0,6 l/m 6,6 km/h (2 Bft) O 0,00 h 0,000 mm 0,0 UV-I 0 W/m -1,8 C 0,3 C 10,9 km/h (2 Bft) 0,00 %
01.04.2015 06:00 1,4 C 73 % 1011,0 hPa 0,0 l/m 5,8 km/h (1 Bft) O 0,00 h 0,000 mm 0,0 UV-I 0 W/m -2,9 C 0,4 C 8,9 km/h (2 Bft) 0,00 %
01.04.2015 07:00 1,1 C 77 % 1011,8 hPa 0,0 l/m 7,3 km/h (2 Bft) W-SW 0,00 h 0,000 mm 0,0 UV-I 4 W/m -2,5 C -2,1 C 10,9 km/h (2 Bft) 0,00 %
01.04.2015 08:00 1,3 C 79 % 1012,3 hPa 0,0 l/m 4,6 km/h (1 Bft) W-SW 0,00 h 0,000 mm 0,0 UV-I 41 W/m -1,9 C 1,3 C 8,9 km/h (2 Bft) 0,00 %
01.04.2015 09:00 2,2 C 74 % 1012,7 hPa 0,0 l/m 7,2 km/h (2 Bft) S 0,00 h 0,000 mm 1,0 UV-I 101 W/m -2,0 C -0,6 C 9,9 km/h (2 Bft) 0,00 %
01.04.2015 10:00 2,5 C 73 % 1013,3 hPa 0,3 l/m 7,6 km/h (2 Bft) O-NO 0,00 h 0,000 mm 2,7 UV-I 257 W/m -1,9 C 0,2 C 13,0 km/h (3 Bft) 0,00 %
01.04.2015 11:00 2,4 C 72 % 1014,2 hPa 0,0 l/m 6,9 km/h (2 Bft) W-SW 0,00 h 0,000 mm 2,5 UV-I 93 W/m -2,1 C 0,7 C 10,9 km/h (2 Bft) 0,00 %
01.04.2015 12:00 3,7 C 69 % 1014,3 hPa 0,0 l/m 10,5 km/h (2 Bft) SW 0,25 h 0,000 mm 3,0 UV-I 345 W/m -1,5 C 0,6 C 19,0 km/h (3 Bft) 0,00 %
01.04.2015 13:00 3,0 C 76 % 1014,8 hPa 0,0 l/m 7,4 km/h (2 Bft) W-SW 0,00 h 0,000 mm 2,3 UV-I 242 W/m -0,9 C 1,6 C 10,9 km/h (2 Bft) 0,00 %
01.04.2015 14:00 2,6 C 78 % 1015,1 hPa 0,3 l/m 11,4 km/h (2 Bft) W-SW 0,00 h 0,000 mm 1,5 UV-I 156 W/m -1,0 C -1,2 C 17,0 km/h (3 Bft) 0,00 %
01.04.2015 15:00 3,3 C 74 % 1014,6 hPa 0,0 l/m 8,1 km/h (2 Bft) W-SW 0,00 h 0,000 mm 1,7 UV-I 184 W/m -0,8 C 1,3 C 12,9 km/h (3 Bft) 0,00 %
01.04.2015 16:00 5,0 C 62 % 1014,0 hPa 0,0 l/m 5,3 km/h (1 Bft) W-SW 0,00 h 0,000 mm 1,3 UV-I 93 W/m -1,7 C 4,3 C 7,9 km/h (2 Bft) 0,00 %
01.04.2015 17:00 6,3 C 48 % 1014,1 hPa 0,0 l/m 12,8 km/h (3 Bft) W-SW 0,75 h 0,000 mm 1,0 UV-I 322 W/m -3,9 C 2,3 C 18,0 km/h (3 Bft) 0,00 %
01.04.2015 18:00 5,6 C 50 % 1015,1 hPa 0,0 l/m 11,0 km/h (2 Bft) SW 0,50 h 0,000 mm 1,0 UV-I 77 W/m -4,2 C 2,2 C 15,9 km/h (3 Bft) 0,00 %
01.04.2015 19:00 2,9 C 66 % 1016,0 hPa 0,0 l/m 0,7 km/h (0 Bft) W-SW 0,25 h 0,000 mm 0,0 UV-I 9 W/m -2,9 C 2,9 C 3,0 km/h (1 Bft) 0,00 %
01.04.2015 20:00 2,8 C 67 % 1016,7 hPa 0,0 l/m 3,8 km/h (1 Bft) W-SW 0,00 h 0,000 mm 0,0 UV-I 0 W/m -2,6 C 2,2 C 6,9 km/h (2 Bft) 0,00 %
01.04.2015 21:00 2,0 C 73 % 1017,6 hPa 0,0 l/m 5,4 km/h (1 Bft) S 0,00 h 0,000 mm 0,0 UV-I 0 W/m -2,4 C 1,3 C 9,9 km/h (2 Bft) 0,00 %
01.04.2015 22:00 0,9 C 80 % 1018,4 hPa 0,0 l/m 8,9 km/h (2 Bft) SW 0,00 h 0,000 mm 0,0 UV-I 0 W/m -2,1 C -1,8 C 11,9 km/h (2 Bft) 0,00 %
01.04.2015 23:00 1,3 C 76 % 1018,7 hPa 0,3 l/m 9,7 km/h (2 Bft) S 0,00 h 0,000 mm 0,0 UV-I 0 W/m -2,4 C -1,4 C 15,0 km/h (3 Bft) 0,00 %
02.04.2015 00:00 0,7 C 82 % 1019,1 hPa 0,3 l/m 8,1 km/h (2 Bft) W-SW 0,00 h 0,000 mm 0,0 UV-I 0 W/m -2,0 C -1,7 C 12,9 km/h (3 Bft) 0,00 %
02.04.2015 01:00 0,4 C 84 % 1019,4 hPa 0,0 l/m 5,5 km/h (1 Bft) W 0,00 h 0,000 mm 0,0 UV-I 0 W/m -2,0 C -1,1 C 9,9 km/h (2 Bft) 0,00 %
02.04.2015 02:00 0,2 C 86 % 1019,1 hPa 0,0 l/m 8,5 km/h (2 Bft) O-SO 0,00 h 0,000 mm 0,0 UV-I 0 W/m -1,9 C -2,4 C 11,9 km/h (2 Bft) 0,00 %
02.04.2015 03:00 0,3 C 86 % 1017,9 hPa 0,0 l/m 1,1 km/h (1 Bft) SW 0,00 h 0,000 mm 0,0 UV-I 0 W/m -1,8 C 0,3 C 4,0 km/h (1 Bft) 0,00 %
02.04.2015 04:00 0,6 C 84 % 1016,6 hPa 0,0 l/m 4,2 km/h (1 Bft) S-SW 0,00 h 0,000 mm 0,0 UV-I 0 W/m -1,7 C 0,6 C 7,9 km/h (2 Bft) 0,00 %
02.04.2015 05:00 1,0 C 84 % 1015,4 hPa 0,9 l/m 3,3 km/h (1 Bft) NO 0,00 h 0,000 mm 0,0 UV-I 0 W/m -1,4 C 1,0 C 6,9 km/h (2 Bft) 0,00 %
02.04.2015 06:00 1,3 C 83 % 1014,6 hPa 0,9 l/m 2,6 km/h (1 Bft) SW 0,00 h 0,000 mm 0,0 UV-I 0 W/m -1,3 C 1,1 C 5,0 km/h (1 Bft) 0,00 %
02.04.2015 07:00 1,1 C 84 % 1014,2 hPa 1,2 l/m 4,9 km/h (1 Bft) S 0,00 h 0,000 mm 0,0 UV-I 17 W/m -1,4 C 0,2 C 8,9 km/h (2 Bft) 0,00 %
02.04.2015 08:00 1,6 C 82 % 1013,0 hPa 1,2 l/m 4,7 km/h (1 Bft) W-SW 0,00 h 0,000 mm 1,0 UV-I 61 W/m -1,1 C 0,9 C 9,9 km/h (2 Bft) 0,00 %
02.04.2015 09:00 2,4 C 81 % 1011,7 hPa 0,6 l/m 3,9 km/h (1 Bft) SW 0,00 h 0,000 mm 1,0 UV-I 121 W/m -0,5 C 1,9 C 6,9 km/h (2 Bft) 0,00 %
02.04.2015 10:00 2,8 C 83 % 1010,2 hPa 0,0 l/m 7,4 km/h (2 Bft) W-SW 0,00 h 0,000 mm 1,7 UV-I 146 W/m 0,2 C 1,1 C 11,9 km/h (2 Bft) 0,00 %
02.04.2015 11:00 3,7 C 81 % 1008,3 hPa 0,0 l/m 8,2 km/h (2 Bft) W-SW 0,00 h 0,000 mm 1,7 UV-I 196 W/m 0,7 C 1,7 C 13,8 km/h (3 Bft) 0,00 %
02.04.2015 12:00 4,3 C 80 % 1006,2 hPa 0,0 l/m 12,7 km/h (3 Bft) W-SW 0,00 h 0,000 mm 2,0 UV-I 206 W/m 1,1 C -0,5 C 18,9 km/h (3 Bft) 0,00 %
02.04.2015 13:00 4,6 C 80 % 1005,4 hPa 0,0 l/m 11,9 km/h (2 Bft) W-SW 0,00 h 0,000 mm 1,3 UV-I 149 W/m 1,5 C 0,7 C 16,9 km/h (3 Bft) 0,00 %
02.04.2015 14:00 4,6 C 83 % 1005,3 hPa 0,9 l/m 5,0 km/h (1 Bft) S 0,00 h 0,000 mm 1,0 UV-I 80 W/m 1,9 C 3,3 C 7,9 km/h (2 Bft) 0,00 %
02.04.2015 15:00 4,1 C 84 % 1006,0 hPa 2,1 l/m 11,5 km/h (2 Bft) W-NW 0,00 h 0,000 mm 1,0 UV-I 41 W/m 1,7 C 0,2 C 17,9 km/h (3 Bft) 0,00 %
02.04.2015 16:00 4,4 C 80 % 1007,3 hPa 0,0 l/m 10,3 km/h (2 Bft) S 0,00 h 0,000 mm 1,0 UV-I 113 W/m 1,2 C 1,6 C 15,9 km/h (3 Bft) 0,00 %
02.04.2015 17:00 3,8 C 72 % 1009,8 hPa 0,0 l/m 6,3 km/h (2 Bft) W-SW 0,25 h 0,000 mm 1,0 UV-I 221 W/m -0,9 C 2,6 C 10,9 km/h (2 Bft) 0,00 %
02.04.2015 18:00 3,3 C 72 % 1012,1 hPa 0,3 l/m 3,5 km/h (1 Bft) SW 0,50 h 0,000 mm 0,0 UV-I 118 W/m -1,4 C 2,9 C 6,9 km/h (2 Bft) 0,00 %
02.04.2015 19:00 1,5 C 77 % 1014,1 hPa 0,6 l/m 5,9 km/h (2 Bft) W-SW 0,00 h 0,000 mm 0,0 UV-I 0 W/m -2,0 C 0,4 C 7,9 km/h (2 Bft) 0,00 %
02.04.2015 20:00 1,4 C 70 % 1015,6 hPa 0,0 l/m 6,7 km/h (2 Bft) W-SW 0,00 h 0,000 mm 0,0 UV-I 0 W/m -3,5 C -0,6 C 9,9 km/h (2 Bft) 0,00 %
02.04.2015 21:00 1,6 C 69 % 1016,5 hPa 0,0 l/m 9,0 km/h (2 Bft) W-SW 0,00 h 0,000 mm 0,0 UV-I 0 W/m -3,4 C -1,3 C 10,9 km/h (2 Bft) 0,00 %
02.04.2015 22:00 1,1 C 67 % 1017,8 hPa 0,0 l/m 5,1 km/h (1 Bft) W-SW 0,00 h 0,000 mm 0,0 UV-I 0 W/m -4,2 C 0,0 C 8,9 km/h (2 Bft) 0,00 %
02.04.2015 23:00 0,7 C 77 % 1018,4 hPa 0,0 l/m 8,2 km/h (2 Bft) W-SW 0,00 h 0,000 mm 0,0 UV-I 0 W/m -2,9 C -1,8 C 12,8 km/h (3 Bft) 0,00 %
03.04.2015 00:00 0,4 C 81 % 1019,0 hPa 0,0 l/m 6,5 km/h (2 Bft) W-SW 0,00 h 0,000 mm 0,0 UV-I 0 W/m -2,5 C -0,8 C 9,9 km/h (2 Bft) 0,00 %
03.04.2015 01:00 0,6 C 77 % 1019,8 hPa 0,0 l/m 7,0 km/h (2 Bft) W-SW 0,00 h 0,000 mm 0,0 UV-I 0 W/m -3,0 C -1,9 C 9,9 km/h (2 Bft) 0,00 %
03.04.2015 02:00 0,6 C 75 % 1020,3 hPa 0,0 l/m 7,0 km/h (2 Bft) W-SW 0,00 h 0,000 mm 0,0 UV-I 0 W/m -3,4 C -1,1 C 12,9 km/h (3 Bft) 0,00 %
03.04.2015 03:00 0,1 C 73 % 1020,8 hPa 0,0 l/m 7,5 km/h (2 Bft) W-SW 0,00 h 0,000 mm 0,0 UV-I 0 W/m -4,1 C -1,5 C 11,9 km/h (2 Bft) 0,00 %
03.04.2015 04:00 -0,1 C 73 % 1021,4 hPa 0,0 l/m 5,3 km/h (1 Bft) W-SW 0,00 h 0,000 mm 0,0 UV-I 0 W/m -4,4 C -0,4 C 8,9 km/h (2 Bft) 0,00 %
03.04.2015 05:00 -0,3 C 73 % 1021,6 hPa 0,0 l/m 3,1 km/h (1 Bft) S 0,00 h 0,000 mm 0,0 UV-I 0 W/m -4,5 C -0,3 C 6,9 km/h (2 Bft) 0,00 %
03.04.2015 06:00 0,1 C 69 % 1021,8 hPa 0,0 l/m 3,1 km/h (1 Bft) W-SW 0,00 h 0,000 mm 0,0 UV-I 0 W/m -4,9 C 0,0 C 6,0 km/h (2 Bft) 0,00 %
03.04.2015 07:00 0,1 C 72 % 1022,5 hPa 0,0 l/m 0,4 km/h (0 Bft) W-SW 0,00 h 0,000 mm 1,0 UV-I 31 W/m -4,3 C 0,1 C 2,0 km/h (1 Bft) 0,00 %
03.04.2015 08:00 1,5 C 70 % 1022,8 hPa 0,0 l/m 0,3 km/h (0 Bft) W-SW 0,00 h 0,000 mm 1,3 UV-I 142 W/m -3,3 C 1,5 C 1,0 km/h (0 Bft) 0,00 %
03.04.2015 09:00 2,8 C 65 % 1022,6 hPa 0,0 l/m 4,3 km/h (1 Bft) W-SW 0,00 h 0,000 mm 2,0 UV-I 156 W/m -3,2 C 2,6 C 6,9 km/h (2 Bft) 0,00 %
03.04.2015 10:00 4,4 C 59 % 1022,1 hPa 0,0 l/m 4,8 km/h (1 Bft) W-SW 0,25 h 0,000 mm 3,0 UV-I 287 W/m -2,9 C 3,8 C 7,9 km/h (2 Bft) 0,00 %
03.04.2015 11:00 5,0 C 52 % 1021,5 hPa 0,0 l/m 3,0 km/h (1 Bft) W-SW 0,25 h 0,000 mm 2,3 UV-I 278 W/m -4,1 C 5,0 C 5,9 km/h (2 Bft) 0,00 %
03.04.2015 12:00 6,1 C 47 % 1020,7 hPa 0,0 l/m 11,4 km/h (2 Bft) W-SW 0,75 h 0,000 mm 4,7 UV-I 572 W/m -4,5 C 2,5 C 14,9 km/h (3 Bft) 0,00 %
03.04.2015 13:00 7,7 C 44 % 1019,9 hPa 0,0 l/m 4,6 km/h (1 Bft) W-SW 1,00 h 0,000 mm 3,7 UV-I 749 W/m -3,8 C 7,3 C 7,9 km/h (2 Bft) 0,00 %
03.04.2015 14:00 7,6 C 45 % 1018,9 hPa 0,0 l/m 4,5 km/h (1 Bft) W-NW 0,75 h 0,000 mm 2,3 UV-I 563 W/m -3,5 C 7,1 C 7,9 km/h (2 Bft) 0,00 %
03.04.2015 15:00 7,7 C 44 % 1017,8 hPa 0,0 l/m 2,8 km/h (1 Bft) W-SW 1,00 h 0,000 mm 2,0 UV-I 712 W/m -3,9 C 7,7 C 4,9 km/h (1 Bft) 0,00 %
03.04.2015 16:00 8,1 C 43 % 1016,8 hPa 0,0 l/m 1,9 km/h (1 Bft) W-SW 1,00 h 0,000 mm 2,0 UV-I 683 W/m -3,8 C 8,0 C 4,0 km/h (1 Bft) 0,00 %
03.04.2015 17:00 8,7 C 40 % 1016,0 hPa 0,0 l/m 4,7 km/h (1 Bft) SW 1,00 h 0,000 mm 1,0 UV-I 534 W/m -4,2 C 7,5 C 6,9 km/h (2 Bft) 0,00 %
03.04.2015 18:00 8,4 C 42 % 1015,6 hPa 0,0 l/m 0,3 km/h (0 Bft) W-SW 1,00 h 0,000 mm 1,0 UV-I 343 W/m -3,9 C 8,4 C 1,0 km/h (0 Bft) 0,00 %
03.04.2015 19:00 5,8 C 51 % 1016,0 hPa 0,0 l/m 0,0 km/h (0 Bft) N 0,50 h 0,000 mm 0,0 UV-I 25 W/m -3,6 C 5,8 C 0,0 km/h (0 Bft) 0,00 %
03.04.2015 20:00 3,4 C 57 % 1016,5 hPa 0,0 l/m 0,0 km/h (0 Bft) N 0,00 h 0,000 mm 0,0 UV-I 0 W/m -4,4 C 3,4 C 0,0 km/h (0 Bft) 0,00 %
03.04.2015 21:00 2,2 C 59 % 1016,8 hPa 0,0 l/m 0,0 km/h (0 Bft) N 0,00 h 0,000 mm 0,0 UV-I 0 W/m -5,0 C 2,2 C 0,0 km/h (0 Bft) 0,00 %
03.04.2015 22:00 0,9 C 67 % 1016,9 hPa 0,0 l/m 0,0 km/h (0 Bft) N 0,00 h 0,000 mm 0,0 UV-I 0 W/m -4,5 C 0,9 C 0,0 km/h (0 Bft) 0,00 %
03.04.2015 23:00 1,0 C 68 % 1016,6 hPa 0,0 l/m 0,0 km/h (0 Bft) N 0,00 h 0,000 mm 0,0 UV-I 0 W/m -4,2 C 1,0 C 0,0 km/h (0 Bft) 0,00 %
04.04.2015 00:00 0,9 C 70 % 1016,2 hPa 0,0 l/m 0,0 km/h (0 Bft) N 0,00 h 0,000 mm 0,0 UV-I 0 W/m -4,0 C 0,9 C 0,0 km/h (0 Bft) 0,00 %
04.04.2015 01:00 -0,1 C 77 % 1015,9 hPa 0,0 l/m 0,0 km/h (0 Bft) N 0,00 h 0,000 mm 0,0 UV-I 0 W/m -3,7 C -0,1 C 0,0 km/h (0 Bft) 0,00 %
04.04.2015 02:00 -0,1 C 79 % 1015,3 hPa 0,0 l/m 0,0 km/h (0 Bft) N 0,00 h 0,000 mm 0,0 UV-I 0 W/m -3,4 C -0,1 C 0,0 km/h (0 Bft) 0,00 %
04.04.2015 03:00 -0,0 C 78 % 1014,8 hPa 0,0 l/m 0,0 km/h (0 Bft) N 0,00 h 0,000 mm 0,0 UV-I 0 W/m -3,4 C -0,0 C 0,0 km/h (0 Bft) 0,00 %
04.04.2015 04:00 0,0 C 80 % 1014,5 hPa 0,0 l/m 0,0 km/h (0 Bft) N 0,00 h 0,000 mm 0,0 UV-I 0 W/m -3,0 C 0,0 C 0,0 km/h (0 Bft) 0,00 %
04.04.2015 05:00 0,3 C 80 % 1014,0 hPa 0,0 l/m 0,0 km/h (0 Bft) N 0,00 h 0,000 mm 0,0 UV-I 0 W/m -2,8 C 0,3 C 0,0 km/h (0 Bft) 0,00 %
04.04.2015 06:00 0,2 C 77 % 1014,0 hPa 0,0 l/m 0,0 km/h (0 Bft) N 0,00 h 0,000 mm 0,0 UV-I 0 W/m -3,3 C 0,2 C 0,0 km/h (0 Bft) 0,00 %
04.04.2015 07:00 0,5 C 77 % 1013,9 hPa 0,0 l/m 0,0 km/h (0 Bft) N 0,00 h 0,000 mm 0,0 UV-I 7 W/m -3,1 C 0,5 C 0,0 km/h (0 Bft) 0,00 %
04.04.2015 08:00 1,0 C 79 % 1013,7 hPa 0,3 l/m 0,0 km/h (0 Bft) N 0,00 h 0,000 mm 1,0 UV-I 40 W/m -2,3 C 1,0 C 0,0 km/h (0 Bft) 0,00 %
04.04.2015 09:00 2,8 C 82 % 1012,9 hPa 0,3 l/m 0,0 km/h (0 Bft) N 0,00 h 0,000 mm 1,7 UV-I 145 W/m -0,1 C 2,8 C 0,0 km/h (0 Bft) 0,00 %
04.04.2015 10:00 5,1 C 74 % 1012,0 hPa 0,0 l/m 0,0 km/h (0 Bft) N 0,00 h 0,000 mm 2,0 UV-I 248 W/m 0,8 C 5,1 C 0,0 km/h (0 Bft) 0,00 %
04.04.2015 11:00 5,2 C 71 % 1011,8 hPa 0,0 l/m 0,2 km/h (0 Bft) N 0,00 h 0,000 mm 3,0 UV-I 302 W/m 0,2 C 5,2 C 2,0 km/h (1 Bft) 0,00 %
04.04.2015 12:00 6,5 C 61 % 1011,2 hPa 0,0 l/m 0,0 km/h (0 Bft) N 0,00 h 0,000 mm 3,0 UV-I 367 W/m -0,5 C 6,5 C 0,0 km/h (0 Bft) 0,00 %
04.04.2015 13:00 7,6 C 54 % 1010,5 hPa 0,0 l/m 0,6 km/h (0 Bft) S-SO 0,25 h 0,000 mm 3,7 UV-I 388 W/m -1,2 C 7,6 C 2,0 km/h (1 Bft) 0,00 %
04.04.2015 14:00 8,3 C 47 % 1009,8 hPa 0,0 l/m 2,4 km/h (1 Bft) O 0,75 h 0,000 mm 3,0 UV-I 409 W/m -2,3 C 8,3 C 4,0 km/h (1 Bft) 0,00 %
04.04.2015 15:00 8,4 C 41 % 1009,4 hPa 0,0 l/m 1,5 km/h (1 Bft) O 0,25 h 0,000 mm 2,0 UV-I 224 W/m -4,0 C 8,4 C 4,0 km/h (1 Bft) 0,00 %
04.04.2015 16:00 7,3 C 45 % 1009,7 hPa 0,0 l/m 0,7 km/h (0 Bft) O-SO 0,00 h 0,000 mm 1,3 UV-I 161 W/m -3,8 C 7,3 C 2,0 km/h (1 Bft) 0,00 %
04.04.2015 17:00 6,8 C 48 % 1010,2 hPa 0,0 l/m 2,1 km/h (1 Bft) N 0,00 h 0,000 mm 1,0 UV-I 108 W/m -3,4 C 6,4 C 3,0 km/h (1 Bft) 0,00 %
04.04.2015 18:00 5,9 C 55 % 1010,9 hPa 0,0 l/m 4,5 km/h (1 Bft) O-SO 0,00 h 0,000 mm 0,0 UV-I 20 W/m -2,4 C 5,5 C 7,9 km/h (2 Bft) 0,00 %
04.04.2015 19:00 4,9 C 61 % 1011,4 hPa 0,0 l/m 0,1 km/h (0 Bft) O-SO 0,00 h 0,000 mm 0,0 UV-I 3 W/m -2,1 C 4,9 C 1,0 km/h (0 Bft) 0,00 %
04.04.2015 20:00 4,4 C 67 % 1012,1 hPa 0,0 l/m 0,4 km/h (0 Bft) N 0,00 h 0,000 mm 0,0 UV-I 0 W/m -1,3 C 4,4 C 1,0 km/h (0 Bft) 0,00 %
04.04.2015 21:00 3,8 C 69 % 1012,7 hPa 0,0 l/m 0,0 km/h (0 Bft) N 0,00 h 0,000 mm 0,0 UV-I 0 W/m -1,4 C 3,8 C 0,0 km/h (0 Bft) 0,00 %
04.04.2015 22:00 3,5 C 72 % 1013,3 hPa 0,0 l/m 0,0 km/h (0 Bft) N 0,00 h 0,000 mm 0,0 UV-I 0 W/m -1,1 C 3,5 C 0,0 km/h (0 Bft) 0,00 %
04.04.2015 23:00 3,3 C 71 % 1013,9 hPa 0,0 l/m 0,2 km/h (0 Bft) N 0,00 h 0,000 mm 0,0 UV-I 0 W/m -1,4 C 3,3 C 1,0 km/h (0 Bft) 0,00 %
05.04.2015 00:00 3,7 C 60 % 1014,3 hPa 0,0 l/m 0,0 km/h (0 Bft) N 0,00 h 0,000 mm 0,0 UV-I 0 W/m -3,4 C 3,7 C 0,0 km/h (0 Bft) 0,00 %
05.04.2015 01:00 3,1 C 64 % 1014,7 hPa 0,0 l/m 0,0 km/h (0 Bft) N 0,00 h 0,000 mm 0,0 UV-I 0 W/m -3,1 C 3,1 C 0,0 km/h (0 Bft) 0,00 %
05.04.2015 02:00 2,7 C 62 % 1014,9 hPa 0,0 l/m 0,0 km/h (0 Bft) N 0,00 h 0,000 mm 0,0 UV-I 0 W/m -3,8 C 2,7 C 0,0 km/h (0 Bft) 0,00 %
05.04.2015 03:00 2,3 C 58 % 1015,1 hPa 0,0 l/m 0,3 km/h (0 Bft) N 0,00 h 0,000 mm 0,0 UV-I 0 W/m -5,2 C 2,3 C 2,0 km/h (1 Bft) 0,00 %
05.04.2015 04:00 1,1 C 60 % 1015,8 hPa 0,0 l/m 0,2 km/h (0 Bft) N 0,00 h 0,000 mm 0,0 UV-I 0 W/m -5,8 C 1,1 C 1,0 km/h (0 Bft) 0,00 %
05.04.2015 05:00 0,6 C 61 % 1016,3 hPa 0,0 l/m 0,0 km/h (0 Bft) N 0,00 h 0,000 mm 0,0 UV-I 0 W/m -6,0 C 0,6 C 0,0 km/h (0 Bft) 0,00 %
05.04.2015 06:00 -0,3 C 66 % 1017,4 hPa 0,0 l/m 0,0 km/h (0 Bft) N 0,00 h 0,000 mm 0,0 UV-I 6 W/m -5,9 C -0,3 C 0,0 km/h (0 Bft) 0,00 %
05.04.2015 07:00 -0,2 C 68 % 1018,2 hPa 0,0 l/m 0,0 km/h (0 Bft) N 0,00 h 0,000 mm 1,0 UV-I 32 W/m -5,3 C -0,2 C 0,0 km/h (0 Bft) 0,00 %
05.04.2015 08:00 1,3 C 64 % 1018,7 hPa 0,0 l/m 0,0 km/h (0 Bft) N 0,00 h 0,000 mm 1,0 UV-I 91 W/m -4,8 C 1,3 C 0,0 km/h (0 Bft) 0,00 %
05.04.2015 09:00 3,6 C 61 % 1019,0 hPa 0,0 l/m 0,6 km/h (0 Bft) W-SW 0,00 h 0,000 mm 2,0 UV-I 160 W/m -3,3 C 3,6 C 1,0 km/h (0 Bft) 0,00 %
05.04.2015 10:00 4,4 C 56 % 1019,2 hPa 0,0 l/m 1,9 km/h (1 Bft) NO 0,50 h 0,000 mm 2,0 UV-I 255 W/m -3,6 C 4,4 C 4,0 km/h (1 Bft) 0,00 %
05.04.2015 11:00 3,0 C 66 % 1019,8 hPa 0,0 l/m 2,8 km/h (1 Bft) O-NO 0,25 h 0,000 mm 2,3 UV-I 254 W/m -2,7 C 3,0 C 4,0 km/h (1 Bft) 0,00 %
05.04.2015 12:00 4,9 C 54 % 1019,3 hPa 0,0 l/m 2,8 km/h (1 Bft) W-SW 0,50 h 0,000 mm 3,3 UV-I 408 W/m -3,6 C 4,3 C 5,0 km/h (1 Bft) 0,00 %
05.04.2015 13:00 5,6 C 54 % 1019,2 hPa 0,0 l/m 0,6 km/h (0 Bft) O 0,50 h 0,000 mm 2,7 UV-I 347 W/m -3,0 C 5,6 C 1,0 km/h (0 Bft) 0,00 %
05.04.2015 14:00 5,1 C 60 % 1019,2 hPa 0,3 l/m 0,1 km/h (0 Bft) O-SO 0,50 h 0,000 mm 2,3 UV-I 507 W/m -2,1 C 5,1 C 1,0 km/h (0 Bft) 0,00 %
05.04.2015 15:00 4,4 C 66 % 1019,5 hPa 0,3 l/m 2,4 km/h (1 Bft) N 0,00 h 0,000 mm 2,0 UV-I 130 W/m -1,4 C 3,7 C 3,0 km/h (1 Bft) 0,00 %
05.04.2015 16:00 6,0 C 61 % 1019,3 hPa 0,0 l/m 0,0 km/h (0 Bft) N 0,00 h 0,000 mm 2,0 UV-I 182 W/m -0,9 C 6,0 C 0,0 km/h (0 Bft) 0,00 %
05.04.2015 17:00 5,5 C 62 % 1019,6 hPa 0,0 l/m 3,9 km/h (1 Bft) NO 0,25 h 0,000 mm 1,0 UV-I 273 W/m -1,5 C 4,7 C 6,0 km/h (2 Bft) 0,00 %
05.04.2015 18:00 3,5 C 72 % 1020,8 hPa 0,0 l/m 1,2 km/h (1 Bft) N 0,50 h 0,000 mm 0,0 UV-I 134 W/m -1,2 C 3,5 C 2,0 km/h (1 Bft) 0,00 %
05.04.2015 19:00 1,8 C 75 % 1021,6 hPa 0,0 l/m 0,0 km/h (0 Bft) N 0,00 h 0,000 mm 0,0 UV-I 11 W/m -2,2 C 1,8 C 0,0 km/h (0 Bft) 0,00 %
05.04.2015 20:00 1,1 C 80 % 1022,5 hPa 0,0 l/m 0,0 km/h (0 Bft) N 0,00 h 0,000 mm 0,0 UV-I 0 W/m -2,1 C 1,1 C 0,0 km/h (0 Bft) 0,00 %
05.04.2015 21:00 0,8 C 81 % 1023,0 hPa 0,0 l/m 0,0 km/h (0 Bft) N 0,00 h 0,000 mm 0,0 UV-I 0 W/m -2,1 C 0,8 C 0,0 km/h (0 Bft) 0,00 %
05.04.2015 22:00 0,9 C 81 % 1023,1 hPa 0,0 l/m 0,0 km/h (0 Bft) N 0,00 h 0,000 mm 0,0 UV-I 0 W/m -2,0 C 0,9 C 0,0 km/h (0 Bft) 0,00 %
05.04.2015 23:00 0,9 C 80 % 1023,2 hPa 0,0 l/m 0,0 km/h (0 Bft) N 0,00 h 0,000 mm 0,0 UV-I 0 W/m -2,2 C 0,9 C 0,0 km/h (0 Bft) 0,00 %
Min-Datum _ 05.04.15 03.04.15 31.03.15 - 30.03.15 - - - - - 05.04.15 01.04.15 30.03.15 30.03.15
_ Min-Zeit 06:45 17:30 12:00 - 07:15 - - - - - 04:30 03:00 07:15 00:00
Minimum _ -0,5 C 38 % 993,6 hPa - 0,0 km/h (0 Bft) - - - - - -6,2 C -10,1 C 0,0 km/h (0 Bft) 0,00 %
Max-Datum _ 31.03.15 31.03.15 05.04.15 30.03.15 31.03.15 - 30.03.15 30.03.15 03.04.15 03.04.15 30.03.15 31.03.15 31.03.15 30.03.15
_ Max-Zeit 13:00 07:30 23:45 11:15 23:59 - 14:15 00:00 13:00 14:00 00:15 14:45 23:59 00:00
Maximum _ 16,0 C 89 % 1023,3 hPa 3,0 l/m 72,4 km/h
W-SW (8 Bft)
- 0,25 h 0,000 mm 6,0 UV-I 818 W/m 6,1 C 13,5 C 92,5 km/h
W-SW (10 Bft)
0,00 %
Durchschnitt _ 4,2 C 70 % 1011,7 hPa #30,0 l/m 5,1 km/h (1 Bft) W-SW #15:30 h #0,000 mm 1,8 UV-I 190 W/m -1,1 C 2,9 C 8,0 km/h (2 Bft) 0,00 %